Time;durP1;ratioP1;P1;durP2;ratioP2;P2;SDS_P1;SDS_P2;PMS_P1;PMS_P2;Temp;Humidity;BMP_temperature;BMP_pressure;BME280_temperature;BME280_humidity;BME280_pressure;Samples;Min_cycle;Max_cycle;Signal;HPM_P1;HPM_P2
2022/08/04 00:00:10;;;;;;;5.53;4.80;;;22.60;99.90;;;;;;5108875;28;20192;-64
2022/08/04 00:02:53;;;;;;;7.55;4.32;;;22.60;99.90;;;;;;5093523;28;20205;-66
2022/08/04 00:05:37;;;;;;;5.85;4.35;;;22.50;99.90;;;;;;5103623;28;20687;-64
2022/08/04 00:08:15;;;;;;;4.35;4.05;;;22.50;99.90;;;;;;5091952;28;20330;-65
2022/08/04 00:10:52;;;;;;;4.95;4.50;;;22.40;99.90;;;;;;5110332;28;20540;-65
2022/08/04 00:13:22;;;;;;;4.65;3.80;;;22.30;99.90;;;;;;5096044;28;20177;-62
2022/08/04 00:15:57;;;;;;;3.88;3.58;;;22.30;99.90;;;;;;5099886;28;20184;-63
2022/08/04 00:18:28;;;;;;;4.30;3.85;;;22.20;99.90;;;;;;5099594;28;20552;-65
2022/08/04 00:20:58;;;;;;;7.20;3.75;;;22.20;99.90;;;;;;5107811;28;20685;-66
2022/08/04 00:23:26;;;;;;;6.55;4.07;;;22.20;99.90;;;;;;5091712;28;20686;-64
2022/08/04 00:25:52;;;;;;;4.47;4.07;;;22.20;99.90;;;;;;5092048;28;20227;-63
2022/08/04 00:28:20;;;;;;;4.47;4.07;;;22.10;99.90;;;;;;5106532;28;20157;-64
2022/08/04 00:30:46;;;;;;;4.63;3.83;;;22.10;99.90;;;;;;5102651;28;20173;-63
2022/08/04 00:33:18;;;;;;;7.90;4.43;;;22.00;99.90;;;;;;5105526;28;20166;-64
2022/08/04 00:35:44;;;;;;;6.93;4.68;;;22.00;99.90;;;;;;5092691;28;20681;-64
2022/08/04 00:38:13;;;;;;;16.15;4.75;;;22.00;99.90;;;;;;5111540;28;20202;-64
2022/08/04 00:41:06;;;;;;;4.75;4.40;;;22.00;99.90;;;;;;5093850;28;20172;-65
2022/08/04 00:43:55;;;;;;;4.88;4.47;;;22.00;99.90;;;;;;5107058;28;20172;-65
2022/08/04 00:46:29;;;;;;;5.45;4.78;;;22.10;99.90;;;;;;5071877;28;20202;-64
2022/08/04 00:49:18;;;;;;;5.63;5.18;;;22.20;99.90;;;;;;5099275;28;20172;-64
2022/08/04 00:51:54;;;;;;;4.65;4.20;;;22.20;99.90;;;;;;5099428;28;20186;-65
2022/08/04 00:54:36;;;;;;;8.18;4.53;;;22.20;99.90;;;;;;5096997;28;20184;-64
2022/08/04 00:57:19;;;;;;;5.40;4.47;;;22.20;99.90;;;;;;5107867;28;20196;-64
2022/08/04 01:00:04;;;;;;;9.18;4.70;;;22.20;99.90;;;;;;5091965;28;20654;-63
2022/08/04 01:03:08;;;;;;;4.70;4.22;;;22.20;99.90;;;;;;5110907;28;20200;-64
2022/08/04 01:05:49;;;;;;;6.63;4.32;;;22.10;99.90;;;;;;5090915;28;20204;-64
2022/08/04 01:08:33;;;;;;;4.78;4.47;;;22.10;99.90;;;;;;5103991;28;20176;-64
2022/08/04 01:11:17;;;;;;;5.13;4.72;;;22.10;99.90;;;;;;5092036;28;20268;-63
2022/08/04 01:13:58;;;;;;;5.93;4.70;;;22.00;99.90;;;;;;5106953;28;20185;-64
2022/08/04 01:16:30;;;;;;;6.45;4.18;;;22.00;99.90;;;;;;5097422;28;20193;-64
2022/08/04 01:19:12;;;;;;;4.68;4.28;;;22.00;99.90;;;;;;5099990;28;20257;-64
2022/08/04 01:21:44;;;;;;;4.82;4.25;;;21.90;99.90;;;;;;5103148;28;20209;-62
2022/08/04 01:24:32;;;;;;;4.90;4.50;;;21.80;99.90;;;;;;5099465;28;20170;-67
2022/08/04 01:27:05;;;;;;;4.95;3.85;;;21.70;99.90;;;;;;5100578;28;20190;-63
2022/08/04 01:29:38;;;;;;;4.50;4.10;;;21.70;99.90;;;;;;5109400;28;20222;-64
2022/08/04 01:32:11;;;;;;;4.53;4.13;;;21.60;99.90;;;;;;5091889;28;20177;-63
2022/08/04 01:34:50;;;;;;;7.13;4.45;;;21.60;99.90;;;;;;5105388;28;20224;-64
2022/08/04 01:37:36;;;;;;;5.20;3.92;;;21.50;99.90;;;;;;5098900;28;20204;-64
2022/08/04 01:40:05;;;;;;;5.85;4.00;;;21.40;99.90;;;;;;5100942;28;20177;-63
2022/08/04 01:42:32;;;;;;;4.90;4.18;;;21.30;99.90;;;;;;5105033;28;20685;-64
2022/08/04 01:45:07;;;;;;;5.85;4.07;;;21.30;99.90;;;;;;5108160;28;20176;-65
2022/08/04 01:47:35;;;;;;;4.63;4.07;;;21.30;99.90;;;;;;5094427;28;20234;-66
2022/08/04 01:50:05;;;;;;;5.43;4.93;;;21.30;99.90;;;;;;5112094;28;20176;-64
2022/08/04 01:52:34;;;;;;;4.78;4.43;;;21.20;99.90;;;;;;5100602;28;20218;-64
2022/08/04 01:55:02;;;;;;;5.18;4.88;;;21.20;99.90;;;;;;5102088;28;20516;-65
2022/08/04 01:57:28;;;;;;;5.75;4.57;;;21.10;99.90;;;;;;5098557;28;20226;-65
2022/08/04 01:59:58;;;;;;;5.60;5.10;;;21.10;99.90;;;;;;5113805;28;20255;-65
2022/08/04 02:02:24;;;;;;;6.50;4.93;;;21.20;99.90;;;;;;5106400;28;20201;-63
2022/08/04 02:04:49;;;;;;;5.90;4.18;;;21.20;99.90;;;;;;5097143;28;20185;-64
2022/08/04 02:07:31;;;;;;;6.00;4.85;;;21.20;99.90;;;;;;5104519;28;20586;-64
2022/08/04 02:10:04;;;;;;;5.10;4.10;;;21.20;99.90;;;;;;5105797;28;20596;-64
2022/08/04 02:12:30;;;;;;;4.30;3.90;;;21.30;99.90;;;;;;5098271;28;20608;-63
2022/08/04 02:15:00;;;;;;;4.78;4.30;;;21.30;99.90;;;;;;5113772;28;20223;-64
2022/08/04 02:17:51;;;;;;;4.63;3.78;;;21.30;99.90;;;;;;5093767;28;20686;-62
2022/08/04 02:20:27;;;;;;;6.40;4.05;;;21.30;99.90;;;;;;5101982;28;20623;-63
2022/08/04 02:23:03;;;;;;;7.53;5.18;;;21.30;99.90;;;;;;5109061;28;20204;-65
2022/08/04 02:25:35;;;;;;;4.70;4.25;;;21.20;99.90;;;;;;5101334;28;20212;-65
2022/08/04 02:28:30;;;;;;;4.50;4.20;;;21.20;99.90;;;;;;5097921;28;20189;-65
2022/08/04 02:31:08;;;;;;;5.28;4.78;;;21.20;99.90;;;;;;5097643;28;20181;-65
2022/08/04 02:33:40;;;;;;;5.53;5.13;;;21.20;99.90;;;;;;5097356;28;20180;-65
2022/08/04 02:36:10;;;;;;;6.20;5.80;;;21.10;99.90;;;;;;5112933;28;20567;-64
2022/08/04 02:38:49;;;;;;;7.57;6.88;;;21.10;99.90;;;;;;5105807;28;20181;-65
2022/08/04 02:41:20;;;;;;;7.97;7.47;;;21.10;99.90;;;;;;5095248;28;20296;-65
2022/08/04 02:43:48;;;;;;;6.53;5.05;;;21.00;99.90;;;;;;5106862;28;20440;-66
2022/08/04 02:46:16;;;;;;;5.32;5.03;;;21.10;99.90;;;;;;5103759;28;20688;-65
2022/08/04 02:48:46;;;;;;;6.28;5.32;;;21.00;99.90;;;;;;5098780;28;20219;-65
2022/08/04 02:51:13;;;;;;;7.15;4.45;;;21.00;99.90;;;;;;5112602;28;20180;-65
2022/08/04 02:53:41;;;;;;;7.03;4.90;;;21.00;99.90;;;;;;5105706;28;20181;-64
2022/08/04 02:56:08;;;;;;;5.45;4.97;;;21.00;99.90;;;;;;5104615;28;20504;-65
2022/08/04 02:58:35;;;;;;;7.90;4.50;;;20.90;99.90;;;;;;5101510;28;20182;-65
2022/08/04 03:01:02;;;;;;;4.85;4.28;;;21.00;99.90;;;;;;5100628;28;20196;-64
2022/08/04 03:03:39;;;;;;;4.90;4.50;;;21.00;99.90;;;;;;5110176;28;20181;-64
2022/08/04 03:06:10;;;;;;;8.00;5.00;;;20.90;99.90;;;;;;5092973;28;20208;-63
2022/08/04 03:09:03;;;;;;;5.70;4.97;;;20.90;99.90;;;;;;5093313;28;20271;-63
2022/08/04 03:11:40;;;;;;;6.00;5.50;;;20.90;99.90;;;;;;5111004;28;20184;-63
2022/08/04 03:14:20;;;;;;;6.10;5.60;;;20.90;99.90;;;;;;5104099;28;20183;-63
2022/08/04 03:16:46;;;;;;;5.53;5.23;;;20.80;99.90;;;;;;5099997;28;20250;-62
2022/08/04 03:19:17;;;;;;;5.17;4.77;;;20.80;99.90;;;;;;5100333;28;20642;-63
2022/08/04 03:22:07;;;;;;;5.10;4.60;;;20.80;99.90;;;;;;5108612;28;20259;-65
2022/08/04 03:25:10;;;;;;;6.30;4.93;;;20.70;99.90;;;;;;5094302;28;20688;-63
2022/08/04 03:27:56;;;;;;;6.30;4.50;;;20.70;99.90;;;;;;5109541;28;20215;-65
2022/08/04 03:30:51;;;;;;;4.57;4.18;;;20.70;99.90;;;;;;5094240;28;20169;-65
2022/08/04 03:34:04;;;;;;;4.50;4.10;;;20.60;99.90;;;;;;5092305;28;20548;-66
2022/08/04 03:37:37;;;;;;;4.70;4.30;;;20.60;99.90;;;;;;5070396;28;20209;-64
2022/08/04 03:40:21;;;;;;;6.15;4.70;;;20.60;99.90;;;;;;5056228;28;20193;-64
2022/08/04 03:43:23;;;;;;;5.07;4.63;;;20.60;99.90;;;;;;5100320;28;20270;-64
2022/08/04 03:46:04;;;;;;;5.45;5.07;;;20.50;99.90;;;;;;5100371;28;20173;-64
2022/08/04 03:48:56;;;;;;;4.97;4.57;;;20.50;99.90;;;;;;5092407;28;20268;-64
2022/08/04 03:54:31;;;;;;;5.40;4.90;;;20.40;99.90;;;;;;5091826;28;20235;-65
2022/08/04 03:57:20;;;;;;;6.20;4.60;;;20.50;99.90;;;;;;5111715;28;20581;-64
2022/08/04 03:59:50;;;;;;;5.30;4.80;;;20.40;99.90;;;;;;5092631;28;20647;-64
2022/08/04 04:02:33;;;;;;;5.17;4.67;;;20.40;99.90;;;;;;5093419;28;20193;-64
2022/08/04 04:05:21;;;;;;;9.67;5.07;;;20.40;99.90;;;;;;5092069;28;20176;-63
2022/08/04 04:08:28;;;;;;;6.40;5.37;;;20.40;99.90;;;;;;5099601;28;20661;-63
2022/08/04 04:11:15;;;;;;;4.93;4.53;;;20.40;99.90;;;;;;5102705;28;20191;-63
2022/08/04 04:13:55;;;;;;;5.23;4.70;;;20.40;99.90;;;;;;5102010;28;20178;-64
2022/08/04 04:16:45;;;;;;;6.57;4.97;;;20.40;99.90;;;;;;5098339;28;20223;-64
2022/08/04 04:19:48;;;;;;;6.30;5.13;;;20.50;99.90;;;;;;5106619;28;20177;-65
2022/08/04 04:22:28;;;;;;;6.07;5.10;;;20.50;99.90;;;;;;5100400;28;20209;-63
2022/08/04 04:25:13;;;;;;;6.60;5.20;;;20.60;99.90;;;;;;5093886;28;20634;-65
2022/08/04 04:27:47;;;;;;;6.03;5.60;;;20.60;99.90;;;;;;5094653;28;20197;-63
2022/08/04 04:30:30;;;;;;;6.47;5.97;;;20.60;99.90;;;;;;5112014;28;20180;-63
2022/08/04 04:33:23;;;;;;;6.85;6.45;;;20.70;99.90;;;;;;5093275;28;20212;-64
2022/08/04 04:36:23;;;;;;;6.82;6.18;;;20.80;99.90;;;;;;5109096;28;20220;-64
2022/08/04 04:39:11;;;;;;;5.90;5.30;;;20.80;99.90;;;;;;5094014;28;20180;-63
2022/08/04 04:42:12;;;;;;;6.17;5.57;;;20.90;99.90;;;;;;5107026;28;20201;-64
2022/08/04 04:45:30;;;;;;;7.37;5.80;;;20.90;99.90;;;;;;5102638;28;20175;-64
2022/08/04 04:48:25;;;;;;;7.10;5.30;;;21.00;99.90;;;;;;5083106;28;20221;-63
2022/08/04 04:51:06;;;;;;;10.90;6.75;;;21.10;99.90;;;;;;5108641;28;20610;-63
2022/08/04 04:54:09;;;;;;;6.00;5.32;;;21.20;99.90;;;;;;5096203;28;20177;-63
2022/08/04 04:56:49;;;;;;;5.28;4.95;;;21.20;99.90;;;;;;5091486;28;20205;-65
2022/08/04 04:59:24;;;;;;;7.35;5.10;;;21.30;99.90;;;;;;5095443;28;20197;-65
2022/08/04 05:02:01;;;;;;;6.53;5.32;;;21.30;99.90;;;;;;5102198;28;20299;-63
2022/08/04 05:04:50;;;;;;;5.07;4.57;;;21.30;99.90;;;;;;5096598;28;20176;-63
2022/08/04 05:07:51;;;;;;;5.15;4.65;;;21.40;99.90;;;;;;5107176;28;20229;-65
2022/08/04 05:10:59;;;;;;;6.22;4.93;;;21.50;99.90;;;;;;5099674;28;20208;-63
2022/08/04 05:13:45;;;;;;;7.22;4.40;;;21.60;99.90;;;;;;5096095;28;20200;-64
2022/08/04 05:16:31;;;;;;;7.32;5.40;;;21.80;99.90;;;;;;5107827;28;20258;-64
2022/08/04 05:19:23;;;;;;;8.27;7.00;;;21.80;99.90;;;;;;5091907;28;20299;-66
2022/08/04 05:22:00;;;;;;;6.47;5.28;;;22.00;99.90;;;;;;5098425;28;20704;-63
2022/08/04 05:24:27;;;;;;;5.78;5.28;;;22.10;99.90;;;;;;5094599;28;20544;-64
2022/08/04 05:26:55;;;;;;;5.05;4.63;;;22.30;99.90;;;;;;5111275;28;20193;-63
2022/08/04 05:29:33;;;;;;;5.07;4.50;;;22.50;99.90;;;;;;5102271;28;20170;-64
2022/08/04 05:32:02;;;;;;;11.07;5.30;;;22.60;99.90;;;;;;5103673;28;20184;-64
2022/08/04 05:34:32;;;;;;;5.72;4.80;;;22.70;99.90;;;;;;5109371;28;20174;-63
2022/08/04 05:37:02;;;;;;;5.80;4.93;;;22.80;99.90;;;;;;5095176;28;20205;-63
2022/08/04 05:39:29;;;;;;;9.25;4.70;;;22.90;99.90;;;;;;5097969;28;20177;-64
2022/08/04 05:41:57;;;;;;;4.88;4.43;;;23.00;99.90;;;;;;5112820;28;20209;-64
2022/08/04 05:44:24;;;;;;;12.57;5.55;;;23.10;99.90;;;;;;5095225;28;20177;-64
2022/08/04 05:46:55;;;;;;;6.72;5.47;;;23.30;99.90;;;;;;5109127;28;20287;-64
2022/08/04 05:49:27;;;;;;;5.20;4.40;;;23.40;99.90;;;;;;5103334;28;20180;-64
2022/08/04 05:51:56;;;;;;;5.47;4.97;;;23.50;99.90;;;;;;5101013;28;20180;-63
2022/08/04 05:54:23;;;;;;;7.28;5.63;;;23.60;99.90;;;;;;5111210;28;20185;-64
2022/08/04 05:56:50;;;;;;;7.13;5.20;;;23.80;99.90;;;;;;5094176;28;20202;-64
2022/08/04 05:59:17;;;;;;;5.00;4.60;;;24.00;99.90;;;;;;5111678;28;20263;-64
2022/08/04 06:01:45;;;;;;;5.22;4.72;;;24.40;99.90;;;;;;5100055;28;20236;-64
2022/08/04 06:04:12;;;;;;;5.63;5.13;;;24.70;99.90;;;;;;5102159;28;20181;-64
2022/08/04 06:06:39;;;;;;;8.20;4.95;;;24.90;99.90;;;;;;5109522;28;20185;-64
2022/08/04 06:09:04;;;;;;;5.45;4.60;;;25.10;99.90;;;;;;5094376;28;20269;-63
2022/08/04 06:11:31;;;;;;;5.20;4.72;;;25.30;99.90;;;;;;5113329;28;20247;-64
2022/08/04 06:14:02;;;;;;;6.57;4.55;;;25.40;99.90;;;;;;5099083;28;20180;-63
2022/08/04 06:16:34;;;;;;;4.78;4.30;;;25.60;99.90;;;;;;5104047;28;20666;-63
2022/08/04 06:19:05;;;;;;;5.10;4.50;;;26.00;99.90;;;;;;5107059;28;20186;-65
2022/08/04 06:21:32;;;;;;;5.38;4.00;;;26.30;99.90;;;;;;5095139;28;20244;-63
2022/08/04 06:23:59;;;;;;;4.47;4.07;;;26.80;99.90;;;;;;5113141;28;20180;-64
2022/08/04 06:26:26;;;;;;;5.80;4.43;;;27.30;99.90;;;;;;5095325;28;20201;-64
2022/08/04 06:28:54;;;;;;;12.45;4.70;;;27.80;99.90;;;;;;5102772;28;20203;-64
2022/08/04 06:31:31;;;;;;;5.22;4.72;;;28.40;99.90;;;;;;5095902;28;20222;-64
2022/08/04 06:34:02;;;;;;;4.47;4.07;;;28.70;99.90;;;;;;5098622;28;20597;-64
2022/08/04 06:36:30;;;;;;;4.18;3.88;;;29.00;99.90;;;;;;5111458;28;20337;-64
2022/08/04 06:38:59;;;;;;;8.40;4.95;;;29.20;99.90;;;;;;5093316;28;20176;-64
2022/08/04 06:41:25;;;;;;;7.30;4.63;;;29.50;99.90;;;;;;5109670;28;20200;-64
2022/08/04 06:43:52;;;;;;;4.65;4.25;;;29.60;99.90;;;;;;5100525;27;20169;-64
2022/08/04 06:46:19;;;;;;;5.65;4.32;;;29.60;99.90;;;;;;5100902;28;20185;-64
2022/08/04 06:48:45;;;;;;;5.68;4.13;;;29.70;99.90;;;;;;5101066;28;20201;-64
2022/08/04 06:51:13;;;;;;;4.82;4.40;;;29.90;99.90;;;;;;5107861;28;20173;-64
2022/08/04 06:53:39;;;;;;;4.43;4.07;;;29.90;99.90;;;;;;5093691;28;20212;-64
2022/08/04 06:56:07;;;;;;;5.03;4.47;;;30.20;99.90;;;;;;5095153;28;20626;-63
2022/08/04 06:58:34;;;;;;;4.25;3.95;;;30.30;99.90;;;;;;5101807;28;20173;-64
2022/08/04 07:01:01;;;;;;;6.38;3.90;;;30.50;99.90;;;;;;5107583;27;20170;-65
2022/08/04 07:03:28;;;;;;;5.40;4.05;;;30.70;99.90;;;;;;5093634;27;20177;-65
2022/08/04 07:05:54;;;;;;;3.70;3.40;;;30.80;99.90;;;;;;5100224;28;20209;-65
2022/08/04 07:08:21;;;;;;;5.82;4.22;;;30.90;99.90;;;;;;5108165;28;20226;-64
2022/08/04 07:10:48;;;;;;;5.85;3.75;;;31.20;99.90;;;;;;5100075;28;20192;-65
2022/08/04 07:13:15;;;;;;;5.32;3.90;;;31.60;99.90;;;;;;5102589;28;20197;-65
2022/08/04 07:15:44;;;;;;;4.25;3.88;;;31.80;99.90;;;;;;5096073;28;20181;-65
2022/08/04 07:18:10;;;;;;;5.68;3.88;;;31.70;99.90;;;;;;5094174;28;20271;-64
2022/08/04 07:20:42;;;;;;;7.55;3.85;;;31.60;99.90;;;;;;5106901;28;20260;-64
2022/08/04 07:23:11;;;;;;;5.57;3.60;;;31.80;99.90;;;;;;5092894;28;20201;-65
2022/08/04 07:25:37;;;;;;;4.00;3.58;;;32.10;99.90;;;;;;5105783;28;20562;-64
2022/08/04 07:28:03;;;;;;;8.57;3.65;;;32.40;99.90;;;;;;5104647;28;20193;-64
2022/08/04 07:30:30;;;;;;;5.90;3.92;;;32.60;99.90;;;;;;5111586;28;20252;-64
2022/08/04 07:32:56;;;;;;;5.60;3.67;;;32.50;99.90;;;;;;5112908;28;20179;-64
2022/08/04 07:35:23;;;;;;;4.70;3.92;;;32.40;99.90;;;;;;5112435;28;20172;-65
2022/08/04 07:37:48;;;;;;;7.43;3.70;;;32.40;99.90;;;;;;5112632;28;20201;-63
2022/08/04 07:40:14;;;;;;;5.13;3.58;;;32.40;99.90;;;;;;5112691;28;20511;-65
2022/08/04 07:42:40;;;;;;;4.55;4.10;;;32.20;99.90;;;;;;5110352;28;20192;-64
2022/08/04 07:45:07;;;;;;;7.57;4.20;;;31.90;99.90;;;;;;5100322;28;20297;-64
2022/08/04 07:47:33;;;;;;;6.82;4.05;;;31.70;99.90;;;;;;5111348;28;20282;-65
2022/08/04 07:49:58;;;;;;;4.85;4.10;;;31.80;99.90;;;;;;5108415;28;20196;-64
2022/08/04 07:52:25;;;;;;;4.72;3.75;;;32.20;99.90;;;;;;5093717;28;20613;-65
2022/08/04 07:54:52;;;;;;;4.25;3.63;;;32.50;99.90;;;;;;5103673;28;20180;-65
2022/08/04 07:57:19;;;;;;;7.40;3.60;;;32.90;99.90;;;;;;5103541;28;20233;-64
2022/08/04 07:59:45;;;;;;;8.98;3.17;;;33.10;99.90;;;;;;5100510;28;20267;-65
2022/08/04 08:02:17;;;;;;;6.68;3.63;;;33.30;99.90;;;;;;5096539;28;20240;-64
2022/08/04 08:04:45;;;;;;;9.55;4.30;;;33.40;99.90;;;;;;5104132;28;20264;-65
2022/08/04 08:07:11;;;;;;;3.65;3.30;;;33.60;99.90;;;;;;5112132;28;20730;-65
2022/08/04 08:09:37;;;;;;;13.43;3.65;;;33.80;99.90;;;;;;5092400;28;20449;-63
2022/08/04 08:12:03;;;;;;;3.78;3.20;;;34.30;99.90;;;;;;5091807;28;20236;-63
2022/08/04 08:14:29;;;;;;;4.25;3.60;;;34.90;99.90;;;;;;5091694;28;20167;-64
2022/08/04 08:16:55;;;;;;;4.97;3.63;;;35.40;99.90;;;;;;5091554;28;20193;-64
2022/08/04 08:19:20;;;;;;;4.50;3.70;;;35.80;99.90;;;;;;5091509;28;20310;-64
2022/08/04 08:21:49;;;;;;;7.28;3.63;;;36.00;99.90;;;;;;5110941;28;20192;-64
2022/08/04 08:24:16;;;;;;;9.63;3.40;;;36.10;99.90;;;;;;5111730;28;20177;-63
2022/08/04 08:26:42;;;;;;;4.45;3.58;;;36.50;99.90;;;;;;5111837;28;20605;-64
2022/08/04 08:29:07;;;;;;;6.95;4.65;;;36.60;99.90;;;;;;5111794;28;20160;-64
2022/08/04 08:31:33;;;;;;;6.75;3.47;;;36.80;99.90;;;;;;5111483;28;20408;-63
2022/08/04 08:34:00;;;;;;;3.75;3.38;;;37.10;99.90;;;;;;5109775;28;20180;-65
2022/08/04 08:36:38;;;;;;;7.82;3.33;;;37.30;99.90;;;;;;5111764;28;20188;-64
2022/08/04 08:39:23;;;;;;;8.20;3.35;;;37.50;99.90;;;;;;5112155;28;20179;-64
2022/08/04 08:42:06;;;;;;;6.28;3.15;;;37.60;99.90;;;;;;5111685;28;20200;-65
2022/08/04 08:44:42;;;;;;;7.05;4.50;;;37.60;99.90;;;;;;5111366;28;20534;-65
2022/08/04 08:47:15;;;;;;;11.23;3.72;;;37.90;99.90;;;;;;5111717;28;20321;-64
2022/08/04 08:50:06;;;;;;;4.15;3.40;;;38.00;99.90;;;;;;5111546;28;20176;-65
2022/08/04 08:53:09;;;;;;;4.00;3.42;;;37.90;99.90;;;;;;5111650;28;20209;-64
2022/08/04 08:56:01;;;;;;;7.18;3.33;;;38.10;99.90;;;;;;5115436;28;20587;-65
2022/08/04 08:59:14;;;;;;;4.93;3.03;;;38.10;99.90;;;;;;5092156;28;20181;-65
2022/08/04 09:02:18;;;;;;;5.72;3.35;;;38.50;99.90;;;;;;5095110;28;20185;-64
2022/08/04 09:05:02;;;;;;;6.95;3.08;;;39.20;99.90;;;;;;5094868;28;20170;-64
2022/08/04 09:07:36;;;;;;;3.30;3.00;;;39.50;99.90;;;;;;5095202;28;20188;-63
2022/08/04 09:10:21;;;;;;;4.85;2.90;;;40.30;99.90;;;;;;5095194;28;20170;-64
2022/08/04 09:12:55;;;;;;;5.20;3.38;;;41.00;99.20;;;;;;5094839;28;20260;-64
2022/08/04 09:15:43;;;;;;;5.75;3.03;;;41.30;97.90;;;;;;5094621;28;20183;-64
2022/08/04 09:18:24;;;;;;;4.75;2.80;;;41.80;95.30;;;;;;5095075;28;20541;-64
2022/08/04 09:21:05;;;;;;;6.60;3.17;;;41.90;94.70;;;;;;5094540;28;20196;-64
2022/08/04 09:23:50;;;;;;;3.80;3.22;;;41.70;92.90;;;;;;5094583;28;20177;-65
2022/08/04 09:26:28;;;;;;;5.32;2.42;;;41.30;92.90;;;;;;5094902;28;20185;-64
2022/08/04 09:29:17;;;;;;;5.47;3.08;;;40.90;92.30;;;;;;5094932;28;20281;-64
2022/08/04 09:32:09;;;;;;;5.43;2.33;;;40.80;93.10;;;;;;5094212;28;20584;-64
2022/08/04 09:34:55;;;;;;;3.85;2.78;;;40.90;93.70;;;;;;5094341;28;20231;-64
2022/08/04 09:37:53;;;;;;;10.27;3.05;;;41.10;91.00;;;;;;5094385;28;20268;-63
2022/08/04 09:40:25;;;;;;;6.65;3.00;;;41.10;91.10;;;;;;5094742;28;20170;-64
2022/08/04 09:43:18;;;;;;;3.55;2.95;;;40.70;91.00;;;;;;5094438;28;20204;-64
2022/08/04 09:46:19;;;;;;;5.22;2.70;;;40.30;86.90;;;;;;5094254;28;20546;-65
2022/08/04 09:49:00;;;;;;;3.05;2.65;;;39.90;90.00;;;;;;5094249;28;20177;-64
2022/08/04 09:51:52;;;;;;;2.95;2.65;;;39.70;88.00;;;;;;5094366;28;20169;-64
2022/08/04 09:54:54;;;;;;;2.63;2.40;;;39.30;85.60;;;;;;5094106;28;20173;-64
2022/08/04 09:58:06;;;;;;;3.03;2.70;;;38.90;86.80;;;;;;5105791;28;20195;-63
2022/08/04 10:00:48;;;;;;;3.65;2.60;;;38.40;87.10;;;;;;5108647;28;20189;-63
2022/08/04 10:03:15;;;;;;;2.65;2.35;;;37.80;88.00;;;;;;5114406;28;20211;-63
2022/08/04 10:06:08;;;;;;;3.13;2.83;;;37.20;88.10;;;;;;5113294;28;20173;-64
2022/08/04 10:08:45;;;;;;;7.38;2.85;;;36.70;90.80;;;;;;5114655;27;20275;-63
2022/08/04 10:11:25;;;;;;;3.80;2.83;;;36.20;90.00;;;;;;5114566;28;20173;-63
2022/08/04 10:13:56;;;;;;;3.80;2.70;;;36.20;90.60;;;;;;5114220;28;20330;-63
2022/08/04 10:16:43;;;;;;;2.88;2.50;;;36.20;90.80;;;;;;5114464;28;20604;-63
2022/08/04 10:19:30;;;;;;;3.60;3.30;;;36.00;89.50;;;;;;5114592;28;20169;-64
2022/08/04 10:22:08;;;;;;;6.95;3.40;;;35.70;90.50;;;;;;5114184;28;20625;-63
2022/08/04 10:24:59;;;;;;;2.70;2.50;;;35.60;90.70;;;;;;5113728;28;20180;-64
2022/08/04 10:27:33;;;;;;;6.43;3.05;;;35.70;90.30;;;;;;5114071;28;20189;-64
2022/08/04 10:30:10;;;;;;;4.07;2.97;;;35.60;90.70;;;;;;5114064;28;20422;-64
2022/08/04 10:33:13;;;;;;;4.20;2.50;;;35.50;90.00;;;;;;5114654;28;20179;-65
2022/08/04 10:35:52;;;;;;;2.72;2.50;;;35.40;89.10;;;;;;5113623;27;20261;-66
2022/08/04 10:38:21;;;;;;;8.23;2.92;;;35.30;91.00;;;;;;5112802;28;20590;-65
2022/08/04 10:41:02;;;;;;;2.60;2.40;;;35.50;91.80;;;;;;5112208;27;20826;-65
2022/08/04 10:44:05;;;;;;;3.03;2.78;;;35.40;90.00;;;;;;5113545;28;20176;-65
2022/08/04 10:46:45;;;;;;;3.40;2.40;;;35.50;90.30;;;;;;5113678;28;20271;-65
2022/08/04 10:49:41;;;;;;;5.70;2.42;;;35.80;90.80;;;;;;5114034;28;20252;-66
2022/08/04 10:52:15;;;;;;;2.70;2.45;;;36.50;91.20;;;;;;5112891;28;20192;-66
2022/08/04 10:55:02;;;;;;;2.53;2.33;;;37.00;90.00;;;;;;5113410;28;20176;-66
2022/08/04 10:57:39;;;;;;;3.65;2.63;;;37.70;90.10;;;;;;5113366;28;20197;-65
2022/08/04 11:00:08;;;;;;;2.40;2.20;;;37.70;89.50;;;;;;5113661;28;20172;-65
2022/08/04 11:02:51;;;;;;;2.47;2.38;;;37.60;86.70;;;;;;5113308;28;20215;-65
2022/08/04 11:05:27;;;;;;;6.15;3.03;;;37.40;87.10;;;;;;5113253;28;20218;-66
2022/08/04 11:08:00;;;;;;;4.38;3.20;;;36.60;88.10;;;;;;5113316;28;20188;-67
2022/08/04 11:10:31;;;;;;;4.50;2.78;;;35.90;90.70;;;;;;5113336;28;20173;-67
2022/08/04 11:13:03;;;;;;;4.25;3.15;;;35.50;91.30;;;;;;5111713;27;20207;-64
2022/08/04 11:15:48;;;;;;;7.97;2.85;;;34.80;91.60;;;;;;5112993;28;20565;-64
2022/08/04 11:18:34;;;;;;;5.03;2.67;;;34.20;92.10;;;;;;5113225;28;20177;-65
2022/08/04 11:21:20;;;;;;;5.60;3.00;;;34.10;92.30;;;;;;5113201;28;20192;-65
2022/08/04 11:24:02;;;;;;;4.57;3.40;;;33.90;93.20;;;;;;5092428;28;20422;-65
2022/08/04 11:26:36;;;;;;;3.35;3.08;;;33.80;92.40;;;;;;5092745;28;20563;-65
2022/08/04 11:29:16;;;;;;;5.40;2.90;;;33.80;93.30;;;;;;5092822;28;20173;-64
2022/08/04 11:31:47;;;;;;;3.50;3.20;;;33.80;93.10;;;;;;5092384;28;20177;-66
2022/08/04 11:34:26;;;;;;;6.30;3.17;;;34.00;94.00;;;;;;5092268;28;20172;-65
2022/08/04 11:37:16;;;;;;;5.18;2.65;;;34.20;93.20;;;;;;5092270;28;20232;-64
2022/08/04 11:39:47;;;;;;;3.30;2.80;;;34.40;94.40;;;;;;5103737;28;20208;-66
2022/08/04 11:42:25;;;;;;;3.05;2.85;;;34.60;94.80;;;;;;5109693;28;20201;-65
2022/08/04 11:45:05;;;;;;;3.92;2.90;;;34.70;92.40;;;;;;5110266;28;20204;-66
2022/08/04 11:47:46;;;;;;;8.48;2.88;;;34.20;93.20;;;;;;5100894;28;20196;-65
2022/08/04 11:50:23;;;;;;;3.33;2.80;;;33.70;93.20;;;;;;5099641;28;20173;-64
2022/08/04 11:52:52;;;;;;;3.40;3.10;;;33.40;93.80;;;;;;5096354;28;20583;-63
2022/08/04 11:55:21;;;;;;;8.15;3.38;;;33.10;94.30;;;;;;5111519;28;20179;-64
2022/08/04 11:57:47;;;;;;;3.58;3.15;;;32.70;95.30;;;;;;5111522;28;20196;-63
2022/08/04 12:00:16;;;;;;;3.60;3.30;;;32.30;98.80;;;;;;5096880;28;20177;-64
2022/08/04 12:03:20;;;;;;;4.47;3.17;;;32.20;99.20;;;;;;5101729;28;20201;-66
2022/08/04 12:06:29;;;;;;;3.90;2.90;;;32.30;99.00;;;;;;5070956;28;20571;-66
2022/08/04 12:09:15;;;;;;;7.07;3.58;;;32.60;99.90;;;;;;5092059;28;20173;-63
2022/08/04 12:12:05;;;;;;;7.72;3.00;;;32.90;99.90;;;;;;5097204;28;20615;-66
2022/08/04 12:14:50;;;;;;;5.88;3.35;;;33.10;99.90;;;;;;5104025;28;20178;-64
2022/08/04 12:17:25;;;;;;;3.20;2.95;;;33.00;99.90;;;;;;5106176;28;20208;-66
2022/08/04 12:19:56;;;;;;;6.55;3.05;;;33.20;99.90;;;;;;5094315;28;20196;-64
2022/08/04 12:22:24;;;;;;;6.15;3.30;;;33.40;98.90;;;;;;5111620;28;20539;-64
2022/08/04 12:24:58;;;;;;;2.92;2.67;;;33.40;97.50;;;;;;5106131;28;20181;-65
2022/08/04 12:27:30;;;;;;;4.18;2.90;;;33.50;96.40;;;;;;5098477;28;20205;-66
2022/08/04 12:29:56;;;;;;;7.85;3.05;;;33.30;97.20;;;;;;5099326;28;20180;-66
2022/08/04 12:32:35;;;;;;;3.17;2.97;;;33.30;97.60;;;;;;5106400;28;20643;-65
2022/08/04 12:35:20;;;;;;;5.53;3.17;;;33.30;97.90;;;;;;5099784;28;20233;-65
2022/08/04 12:38:04;;;;;;;3.22;2.90;;;33.30;97.90;;;;;;5091383;28;20207;-64
2022/08/04 12:40:54;;;;;;;2.92;2.72;;;33.20;98.20;;;;;;5092028;28;20639;-63
2022/08/04 12:43:35;;;;;;;5.25;3.30;;;33.20;98.70;;;;;;5091335;28;20288;-65
2022/08/04 12:46:05;;;;;;;5.00;3.13;;;33.20;98.50;;;;;;5108022;28;20179;-65
2022/08/04 12:48:32;;;;;;;2.80;2.58;;;33.30;97.80;;;;;;5098661;28;20180;-64
2022/08/04 12:50:58;;;;;;;8.50;3.55;;;33.40;97.80;;;;;;5108880;28;20288;-64
2022/08/04 12:53:38;;;;;;;3.67;3.00;;;33.60;97.60;;;;;;5107661;28;20204;-64
2022/08/04 12:56:07;;;;;;;3.20;2.90;;;34.00;98.00;;;;;;5091348;28;20177;-66
2022/08/04 12:58:44;;;;;;;3.83;3.15;;;34.40;98.10;;;;;;5110991;28;20200;-64
2022/08/04 13:01:13;;;;;;;7.32;2.80;;;34.50;96.90;;;;;;5094126;28;20173;-65
2022/08/04 13:03:43;;;;;;;8.70;3.35;;;34.80;96.90;;;;;;5098026;28;20184;-65
2022/08/04 13:06:12;;;;;;;6.88;2.85;;;35.00;96.30;;;;;;5098957;28;20673;-66
2022/08/04 13:08:41;;;;;;;6.63;3.60;;;34.90;97.70;;;;;;5106543;28;20166;-64
2022/08/04 13:11:08;;;;;;;3.67;3.10;;;34.70;97.30;;;;;;5091210;28;20579;-63
2022/08/04 13:13:36;;;;;;;4.53;2.97;;;34.70;98.70;;;;;;5109931;28;20180;-65
2022/08/04 13:16:04;;;;;;;3.80;3.50;;;34.30;97.20;;;;;;5095411;28;20186;-65
2022/08/04 13:18:33;;;;;;;3.53;3.25;;;34.10;97.30;;;;;;5101245;28;20173;-64
2022/08/04 13:21:11;;;;;;;6.78;3.30;;;33.90;98.00;;;;;;5104205;28;20213;-64
2022/08/04 13:23:37;;;;;;;4.03;3.22;;;33.70;98.80;;;;;;5101956;28;20200;-66
2022/08/04 13:26:05;;;;;;;9.18;3.25;;;33.50;99.60;;;;;;5110979;28;20273;-64
2022/08/04 13:28:33;;;;;;;5.65;3.30;;;33.80;99.90;;;;;;5092125;28;20169;-66
2022/08/04 13:31:01;;;;;;;7.57;3.00;;;34.30;99.90;;;;;;5104512;28;20234;-65
2022/08/04 13:33:38;;;;;;;4.50;2.90;;;34.70;99.90;;;;;;5101032;28;20260;-65
2022/08/04 13:36:06;;;;;;;7.18;3.33;;;34.90;99.60;;;;;;5096304;28;20537;-65
2022/08/04 13:38:37;;;;;;;6.53;3.20;;;34.90;99.50;;;;;;5108706;28;20181;-65